Pineville, Kentucky
Current Conditions -  °F | °C
As of 8:55 AM on Sunday 25 Jan 2015 (Local Time) from K1A6 Reporting Station
Clear Clear  
Wind Chill: 31°   Ceiling: Unl
Heat Index: 35°   Visibility: 10mi
Dew Point: 30°   Wind: 5mph
Humidity: 82%   Direction: 250°WSW
Pressure: 29.86"   Gusts: NA
Location:  36.76°N, 83.69°W
Report Text: K1A6 251355Z AUTO 25004KT 10SM CLR 02/M01 A2986 RMK AO2 T00171010
Loading
Personal Weather Stations






























Interactive Weather Map New forecast layout! Learn more

10-Day Weather Forecast

Advertisements
Track Severe Weather on mobile